• Join FlightAware (Why Join?)
  • Login
  • US Flag 
06:01PM EST


 

Airport Tracker/Info


-or-


 

Live Flight TrackerFlight Track Log ✈ N1078S ✈ 03-May-2013 ✈ KOPF - KCDW

Flight Track Log - Related Links

Times and Time Zones

All times are in EDT time to prevent confusion due to time zone crossing. See the N1078S flight status page for this flight to view local times or setup timezone preferences in your user account.

Time Position Orientation Groundspeed Altitude Reporting Facility
EDT Latitude Longitude Course Direction KTS MPH feet Rate Location/Type
12:13PM 25.9086 -80.2892 283° West 112 129 400  Level Miami Center
12:14PM 25.9181 -80.3333 283° West 133 153 1,300 840 Climbing Miami Center
12:15PM 25.9275 -80.3753 284° West 141 162 2,300 780 Climbing Miami Center
12:16PM 25.9389 -80.4194 286° West 150 173 3,000 720 Climbing Miami Center
12:17PM 25.9650 -80.4547 309° West 159 183 3,800 660 Climbing Miami Center
12:18PM 25.9975 -80.4997 309° West 157 181 4,500 540 Climbing Miami Center
12:19PM 26.0303 -80.5239 326° Northwest 169 194 4,900 420 Climbing Miami Center
12:20PM 26.0786 -80.5136 11° North 171 197 5,400 480 Climbing Miami Center
12:21PM 26.1225 -80.5081 North 171 197 5,900 420 Climbing Miami Center
12:21PM 26.1603 -80.5022 North 168 193 6,100 300 Climbing Miami Center
12:22PM 26.1769 -80.5028 358° North 171 197 6,300 360 Climbing Miami Center
12:22PM 26.2083 -80.4992 North 173 199 6,500 480 Climbing Miami Center
12:23PM 26.2250 -80.5019 351° North 174 200 6,800 360 Climbing Miami Center
12:23PM 26.2522 -80.5006 North 173 199 6,900 300 Climbing Miami Center
12:24PM 26.3000 -80.5067 353° North 191 220 7,300 360 Climbing Miami Center
12:25PM 26.3478 -80.5197 346° North 185 213 7,700 480 Climbing Miami Center
12:26PM 26.3933 -80.5372 341° North 174 200 8,300 480 Climbing Miami Center
12:27PM 26.4328 -80.5503 343° North 164 189 8,700 300 Climbing Miami Center
12:28PM 26.4847 -80.5611 349° North 169 194 9,000 300 Climbing Miami Center
12:29PM 26.5239 -80.5717 346° North 169 194 9,300 300 Climbing Miami Center
12:30PM 26.5756 -80.5942 339° North 169 194 9,700 300 Climbing Miami Center
12:31PM 26.6169 -80.6094 342° North 169 194 9,900 360 Climbing Miami Center
12:32PM 26.6711 -80.6181 352° North 169 194 10,500 420 Climbing Miami Center
12:33PM 26.7128 -80.6264 350° North 169 194 10,800 240 Climbing Miami Center
12:34PM 26.7667 -80.6397 348° North 169 194 11,000 60 Climbing Miami Center
12:35PM 26.8144 -80.6483 351° North 185 213 11,000  Level Miami Center
12:36PM 26.8706 -80.6594 350° North 185 213 11,000  Level Miami Center
12:37PM 26.9228 -80.6586 North 180 207 11,000  Level Miami Center
12:38PM 26.9750 -80.6581 North 180 207 11,000  Level Miami Center
12:39PM 27.0231 -80.6597 358° North 180 207 11,000  Level Miami Center
12:40PM 27.0750 -80.6592 North 180 207 11,000  Level Miami Center
12:41PM 27.1294 -80.6561 North 180 207 11,000  Level Miami Center
12:42PM 27.1817 -80.6556 North 180 207 11,000  Level Miami Center
12:43PM 27.2361 -80.6528 North 180 207 11,000  Level Miami Center
12:44PM 27.2819 -80.6519 North 180 207 11,000 60 Level Miami Center
12:45PM 27.3286 -80.6278 25° Northeast 167 192 11,200 60 Climbing Miami Center
12:46PM 27.3669 -80.6008 32° Northeast 158 182 11,200 -60 Level Miami Center
12:47PM 27.4211 -80.6050 356° North 170 196 11,100 -60 Descending Miami Center
12:48PM 27.4689 -80.6089 356° North 186 214 11,100 -60 Level Miami Center
12:49PM 27.5211 -80.6106 358° North 186 214 11,000 -60 Descending Miami Center
12:50PM 27.5775 -80.6100 North 186 214 11,000  Level Miami Center
12:51PM 27.6297 -80.6094 North 181 208 11,000  Level Miami Center
12:52PM 27.6756 -80.6133 356° North 181 208 11,100  Climbing Miami Center
12:53PM 27.7297 -80.6128 North 181 208 11,000  Descending Miami Center
12:54PM 27.7861 -80.6169 356° North 181 208 11,100  Climbing Miami Center
12:55PM 27.8403 -80.6186 358° North 181 208 11,000  Descending Miami Center
12:58PM 27.9500 -80.6167 North 188 216 11,100  Climbing Orlando TRACON
12:59PM 28.0167 -80.6167 360° North 189 217 11,100  Level Orlando TRACON
01:00PM 28.0500 -80.6333 336° Northwest 184 212 11,100  Level Orlando TRACON
01:01PM 28.1167 -80.6333 360° North 187 215 11,100 -60 Level Orlando TRACON
01:02PM 28.1667 -80.6333 360° North 180 207 11,000  Descending Orlando TRACON
01:03PM 28.2000 -80.6667 319° Northwest 178 205 11,100  Climbing Orlando TRACON
01:04PM 28.2500 -80.6833 344° North 183 211 11,100 -60 Level Orlando TRACON
01:04PM 28.3000 -80.7000 344° North 185 213 11,000  Descending Orlando TRACON
01:06PM 28.3500 -80.7333 330° Northwest 183 211 11,100  Climbing Orlando TRACON
01:07PM 28.4000 -80.7500 344° North 182 209 11,000 -60 Descending Orlando TRACON
01:07PM 28.4333 -80.7667 336° Northwest 184 212 11,000  Level Orlando TRACON
01:08PM 28.4833 -80.7833 344° North 182 209 11,100  Climbing Orlando TRACON
01:09PM 28.5333 -80.8000 344° North 182 209 11,100 -60 Level Orlando TRACON
01:10PM 28.5833 -80.8333 330° Northwest 186 214 11,000 -60 Descending Orlando TRACON
01:11PM 28.6333 -80.8500 344° North 168 193 11,000  Level Orlando TRACON
01:12PM 28.6667 -80.8667 336° Northwest 174 200 11,100  Climbing Orlando TRACON
01:13PM 28.7167 -80.8833 344° North 182 209 11,000 -60 Descending Orlando TRACON
01:14PM 28.7667 -80.9000 344° North 178 205 11,000  Level Orlando TRACON
01:16PM 28.8403 -80.9253 343° North 180 207 11,000  Level Jacksonville Center
01:17PM 28.8864 -80.9481 337° Northwest 181 208 11,000  Level Jacksonville Center
01:18PM 28.9411 -80.9708 340° North 188 216 11,100  Climbing Jacksonville Center
01:19PM 28.9914 -80.9889 343° North 194 223 11,000 -60 Descending Jacksonville Center
01:20PM 29.0439 -81.0114 339° North 194 223 11,000  Level Jacksonville Center
01:21PM 29.0922 -81.0319 340° North 192 221 11,000  Level Jacksonville Center
01:22PM 29.1425 -81.0500 343° North 196 226 11,000  Level Jacksonville Center
01:23PM 29.1953 -81.0753 337° Northwest 202 232 11,000  Level Jacksonville Center
01:24PM 29.2519 -81.0956 343° North 201 231 11,000  Level Jacksonville Center
01:25PM 29.3064 -81.1161 342° North 203 234 11,000  Level Jacksonville Center
01:26PM 29.3589 -81.1389 339° North 200 230 11,000  Level Jacksonville Center
01:27PM 29.4092 -81.1547 345° North 191 220 11,000  Level Jacksonville Center
01:28PM 29.4636 -81.1753 342° North 192 221 11,000  Level Jacksonville Center
01:29PM 29.5244 -81.1981 342° North 194 223 11,000  Level Jacksonville Center
01:30PM 29.5686 -81.2189 338° Northwest 193 222 11,000  Level Jacksonville Center
01:31PM 29.6211 -81.2394 341° North 192 221 11,000 60 Level Jacksonville Center
01:32PM 29.6483 -81.2483 344° North 194 223 11,100 60 Climbing Jacksonville Center
01:32PM 29.6736 -81.2575 343° North 197 227 11,100  Level Jacksonville Center
01:33PM 29.7303 -81.2781 343° North 199 229 11,100  Level Jacksonville Center
01:34PM 29.7786 -81.3014 337° Northwest 200 230 11,100  Level Jacksonville Center
01:35PM 29.8308 -81.3219 341° North 198 228 11,100  Level Jacksonville Center
01:36PM 29.8833 -81.3403 343° North 199 229 11,100  Level Jacksonville Center
01:37PM 29.9378 -81.3611 342° North 197 227 11,100  Level Jacksonville Center
01:38PM 29.9925 -81.3792 344° North 203 234 11,100  Level Jacksonville Center
01:39PM 30.0447 -81.3978 343° North 204 235 11,100  Level Jacksonville Center
01:40PM 30.1033 -81.4158 345° North 206 237 11,100  Level Jacksonville Center
01:41PM 30.1622 -81.4414 339° North 214 246 11,100  Level Jacksonville Center
01:42PM 30.2167 -81.4647 340° North 211 243 11,100  Level Jacksonville Center
01:43PM 30.2714 -81.4856 342° North 210 242 11,100  Level Jacksonville Center
01:44PM 30.3278 -81.5089 340° North 209 241 11,100  Level Jacksonville Center
01:46PM 30.3844 -81.5247 346° North 213 245 11,100  Level Jacksonville Center
01:47PM 30.4408 -81.5144 North 204 235 11,100  Level Jacksonville Center
01:48PM 30.4967 -81.4869 12° North 203 234 11,100  Level Jacksonville Center
01:49PM 30.5383 -81.4911 12° North  Level FlightAware Approximate
01:49PM 30.5489 -81.4742 12° North 203 234 11,100  Level Jacksonville Center
01:50PM 30.6092 -81.4661 North 198 228 11,100  Level Jacksonville Center
01:51PM 30.6925 -81.4503 North 203 234 11,100  Level Jacksonville Center
01:52PM 30.7511 -81.4397 North 203 234 11,100 -60 Level Jacksonville Center
01:53PM 30.8053 -81.4317 North 203 234 11,000 -60 Descending Jacksonville Center
01:54PM 30.8636 -81.4236 North 203 234 11,000  Level Jacksonville Center
01:55PM 30.9219 -81.4178 North 203 234 11,000  Level Jacksonville Center
01:56PM 30.9717 -81.3928 23° Northeast 198 228 11,000  Level Jacksonville Center
01:57PM 31.0172 -81.3558 35° Northeast 193 222 11,000  Level Jacksonville Center
01:58PM 31.0647 -81.3211 32° Northeast 193 222 11,000  Level Jacksonville Center
01:59PM 31.1125 -81.2911 28° Northeast 193 222 11,000  Level Jacksonville Center
02:00PM 31.1622 -81.2611 27° Northeast 193 222 11,000  Level Jacksonville Center
02:01PM 31.2119 -81.2311 27° Northeast 193 222 11,000  Level Jacksonville Center
02:02PM 31.2594 -81.2011 28° Northeast 193 222 11,000  Level Jacksonville Center
02:03PM 31.3072 -81.1686 30° Northeast 193 222 11,000  Level Jacksonville Center
02:04PM 31.3608 -81.1336 29° Northeast 198 228 11,000  Level Jacksonville Center
02:05PM 31.4064 -81.1058 27° Northeast 198 228 11,000  Level Jacksonville Center
02:06PM 31.4561 -81.0758 27° Northeast 193 222 11,000  Level Jacksonville Center
02:07PM 31.5039 -81.0456 28° Northeast 193 222 11,000  Level Jacksonville Center
02:08PM 31.5453 -81.0203 27° Northeast 184 212 11,000  Level Jacksonville Center
02:09PM 31.5947 -80.9878 29° Northeast 177 204 11,000  Level Jacksonville Center
02:10PM 31.6319 -80.9625 30° Northeast 177 204 11,000  Level Jacksonville Center
02:11PM 31.6817 -80.9347 25° Northeast 177 204 11,000  Level Jacksonville Center
02:12PM 31.7272 -80.9044 29° Northeast 177 204 11,000  Level Jacksonville Center
02:13PM 31.7644 -80.8817 27° Northeast 177 204 11,000 -60 Level Jacksonville Center
02:14PM 31.8119 -80.8511 29° Northeast 177 204 10,900  Descending Jacksonville Center
02:15PM 31.8553 -80.8258 26° Northeast 177 204 11,000  Climbing Jacksonville Center
02:16PM 31.8967 -80.7978 30° Northeast 177 204 10,900  Descending Jacksonville Center
02:17PM 31.9442 -80.7675 28° Northeast 177 204 11,000  Climbing Jacksonville Center
02:18PM 31.9833 -80.7397 31° Northeast 177 204 11,000  Level Jacksonville Center
02:19PM 32.0350 -80.7089 27° Northeast 182 209 11,000  Level Jacksonville Center
02:20PM 32.0803 -80.6786 30° Northeast 177 204 11,000  Level Jacksonville Center
02:21PM 32.1217 -80.6531 28° Northeast 177 204 11,000  Level Jacksonville Center
02:22PM 32.1669 -80.6225 30° Northeast 177 204 11,100  Climbing Jacksonville Center
02:23PM 32.2125 -80.5942 28° Northeast 182 209 11,100  Level Jacksonville Center
02:24PM 32.2600 -80.5636 29° Northeast 182 209 11,100  Level Jacksonville Center
02:25PM 32.3053 -80.5356 28° Northeast 182 209 11,100  Level Jacksonville Center
02:26PM 32.3508 -80.5072 28° Northeast 182 209 11,100  Level Jacksonville Center
02:27PM 32.3983 -80.4789 27° Northeast 182 209 11,100  Level Jacksonville Center
02:28PM 32.4436 -80.4458 32° Northeast 182 209 11,100  Level Jacksonville Center
02:29PM 32.4889 -80.4150 30° Northeast 177 204 11,100  Level Jacksonville Center
02:30PM 32.5364 -80.3864 27° Northeast 182 209 11,100  Level Jacksonville Center
02:31PM 32.5817 -80.3581 28° Northeast 182 209 11,100 -60 Level Jacksonville Center
02:32PM 32.6269 -80.3272 30° Northeast 182 209 11,000  Descending Jacksonville Center
02:33PM 32.6764 -80.2939 30° Northeast 182 209 11,100  Climbing Jacksonville Center
02:34PM 32.7217 -80.2653 28° Northeast 182 209 11,100  Level Jacksonville Center
02:35PM 32.7692 -80.2367 27° Northeast 182 209 11,100  Level Jacksonville Center
02:36PM 32.8144 -80.2058 30° Northeast 182 209 11,100  Level Jacksonville Center
02:37PM 32.8597 -80.1747 30° Northeast 182 209 11,100  Level Jacksonville Center
02:38PM 32.9069 -80.1436 29° Northeast 182 209 11,100  Level Jacksonville Center
02:39PM 32.9564 -80.1175 24° Northeast 182 209 11,100  Level Jacksonville Center
02:40PM 32.9975 -80.0839 34° Northeast 182 209 11,100  Level Jacksonville Center
02:41PM 33.0428 -80.0528 30° Northeast 182 209 11,100  Level Jacksonville Center
02:42PM 33.0942 -80.0214 27° Northeast 182 209 11,100  Level Jacksonville Center
02:43PM 33.1394 -79.9903 30° Northeast 182 209 11,100  Level Jacksonville Center
02:44PM 33.1847 -79.9614 28° Northeast 182 209 11,100  Level Jacksonville Center
02:45PM 33.2300 -79.9325 28° Northeast 182 209 11,100  Level Jacksonville Center
02:46PM 33.2750 -79.9039 28° Northeast 182 209 11,100  Level Jacksonville Center
02:47PM 33.3225 -79.8722 29° Northeast 182 209 11,100  Level Jacksonville Center
02:48PM 33.3675 -79.8411 30° Northeast 182 209 11,100  Level Jacksonville Center
02:49PM 33.4128 -79.8094 30° Northeast 182 209 11,100  Level Jacksonville Center
02:50PM 33.4578 -79.7806 28° Northeast 182 209 11,100  Level Jacksonville Center
02:51PM 33.5031 -79.7517 28° Northeast 182 209 11,100  Level Jacksonville Center
02:52PM 33.5483 -79.7225 28° Northeast 182 209 11,100  Level Jacksonville Center
02:53PM 33.5933 -79.6911 30° Northeast 182 209 11,100  Level Jacksonville Center
02:54PM 33.6386 -79.6619 28° Northeast 182 209 11,100  Level Jacksonville Center
02:55PM 33.6836 -79.6328 28° Northeast 182 209 11,100  Level Jacksonville Center
02:56PM 33.7289 -79.6039 28° Northeast 177 204 11,200  Climbing Jacksonville Center
02:57PM 33.7719 -79.5722 31° Northeast 177 204 11,200  Level Jacksonville Center
02:58PM 33.8189 -79.5403 29° Northeast 177 204 11,200  Level Jacksonville Center
02:59PM 33.8661 -79.5111 27° Northeast 182 209 11,200  Level Jacksonville Center
03:00PM 33.9114 -79.4794 30° Northeast 182 209 11,200  Level Jacksonville Center
03:01PM 33.9542 -79.4500 30° Northeast 177 204 11,200  Level Jacksonville Center
03:02PM 33.9911 -79.4261 28° Northeast 177 204 11,200  Level Jacksonville Center
03:03PM 34.0361 -79.3942 30° Northeast 171 197 11,200  Level Jacksonville Center
03:04PM 34.0814 -79.3650 28° Northeast 176 203 11,200  Level Jacksonville Center
03:05PM 34.1222 -79.3356 31° Northeast 176 203 11,200  Level Jacksonville Center
03:06PM 34.1672 -79.3061 28° Northeast 181 208 11,200  Level Jacksonville Center
03:07PM 34.2122 -79.2767 28° Northeast 181 208 11,200  Level Jacksonville Center
03:09PM 34.2942 -79.2192 30° Northeast 199 229 11,200  Level Washington Center
03:10PM 34.3347 -79.1908 30° Northeast 188 216 11,200 -120 Level Washington Center
03:11PM 34.3836 -79.1578 29° Northeast 182 209 11,000 -120 Descending Washington Center
03:12PM 34.4242 -79.1319 28° Northeast 182 209 11,000  Level Washington Center
03:13PM 34.4731 -79.0986 29° Northeast 187 215 11,000  Level Washington Center
03:14PM 34.5136 -79.0703 30° Northeast 182 209 11,000  Level Washington Center
03:15PM 34.5625 -79.0369 29° Northeast 182 209 11,000  Level Washington Center
03:16PM 34.6028 -79.0108 28° Northeast 182 209 11,000  Level Washington Center
03:17PM 34.6536 -78.9853 22° Northeast 177 204 11,000  Level Washington Center
03:18PM 34.6900 -78.9539 35° Northeast 177 204 11,000  Level Washington Center
03:19PM 34.7369 -78.9181 32° Northeast 177 204 11,000  Level Washington Center
03:20PM 34.7772 -78.8917 28° Northeast 172 198 11,000  Level Washington Center
03:21PM 34.8242 -78.8558 32° Northeast 177 204 11,000  Level Washington Center
03:22PM 34.8647 -78.8269 30° Northeast 182 209 11,000  Level Washington Center
03:23PM 34.9156 -78.7961 26° Northeast 187 215 11,000  Level Washington Center
03:24PM 34.9558 -78.7672 30° Northeast 187 215 11,000  Level Washington Center
03:25PM 34.9964 -78.7383 30° Northeast 187 215 11,000  Level Washington Center
03:26PM 35.0431 -78.7047 31° Northeast 187 215 11,000  Level Washington Center
03:27PM 35.0897 -78.6736 29° Northeast 187 215 11,000  Level Washington Center
03:28PM 35.1322 -78.6447 29° Northeast 187 215 11,000  Level Washington Center
03:29PM 35.1792 -78.6108 31° Northeast 187 215 11,000  Level Washington Center
03:30PM 35.2236 -78.5819 28° Northeast 187 215 11,000  Level Washington Center
03:31PM 35.2661 -78.5556 27° Northeast 182 209 11,000  Level Washington Center
03:32PM 35.3106 -78.5267 28° Northeast 182 209 11,000  Level Washington Center
03:33PM 35.3633 -78.4956 26° Northeast 182 209 11,100  Climbing Washington Center
03:34PM 35.4036 -78.4689 28° Northeast 182 209 11,100  Level Washington Center
03:35PM 35.4525 -78.4375 28° Northeast 177 204 11,100 -60 Level Washington Center
03:36PM 35.4906 -78.4108 30° Northeast 177 204 11,000 -60 Descending Washington Center
03:37PM 35.5372 -78.3819 27° Northeast 177 204 11,000  Level Washington Center
03:38PM 35.5817 -78.3553 26° Northeast 177 204 11,000  Level Washington Center
03:39PM 35.6261 -78.3264 28° Northeast 177 204 11,100  Climbing Washington Center
03:40PM 35.6708 -78.2944 30° Northeast 177 204 11,100  Level Washington Center
03:41PM 35.7150 -78.2678 26° Northeast 177 204 11,100  Level Washington Center
03:42PM 35.7597 -78.2386 28° Northeast 177 204 11,100  Level Washington Center
03:43PM 35.8061 -78.2094 27° Northeast 177 204 11,100  Level Washington Center
03:44PM 35.8506 -78.1803 28° Northeast 177 204 11,100  Level Washington Center
03:45PM 35.8994 -78.1458 30° Northeast 177 204 11,100  Level Washington Center
03:46PM 35.9417 -78.1217 25° Northeast 177 204 11,100  Level Washington Center
03:47PM 35.9922 -78.0900 27° Northeast 182 209 11,100  Level Washington Center
03:48PM 36.0367 -78.0578 30° Northeast 177 204 11,100  Level Washington Center
03:49PM 36.0811 -78.0311 26° Northeast 177 204 11,100  Level Washington Center
03:50PM 36.1256 -78.0014 28° Northeast 177 204 11,100  Level Washington Center
03:51PM 36.1700 -77.9719 28° Northeast 177 204 11,100  Level Washington Center
03:52PM 36.2186 -77.9425 26° Northeast 177 204 11,100  Level Washington Center
03:53PM 36.2608 -77.9103 32° Northeast 177 204 11,100  Level Washington Center
03:54PM 36.3075 -77.8808 27° Northeast 177 204 11,100  Level Washington Center
03:55PM 36.3517 -77.8511 28° Northeast 177 204 11,100  Level Washington Center
03:56PM 36.3961 -77.8242 26° Northeast 177 204 11,100  Level Washington Center
03:57PM 36.4406 -77.7944 28° Northeast 177 204 11,100 -60 Level Washington Center
03:58PM 36.4847 -77.7619 31° Northeast 177 204 11,000  Descending Washington Center
03:59PM 36.5228 -77.7372 28° Northeast 177 204 11,100  Climbing Washington Center
04:00PM 36.5692 -77.7075 27° Northeast 177 204 11,100  Level Washington Center
04:01PM 36.6094 -77.6775 31° Northeast 177 204 11,100  Level Washington Center
04:02PM 36.6558 -77.6503 25° Northeast 177 204 11,100  Level Washington Center
04:03PM 36.7003 -77.6178 30° Northeast 177 204 11,100  Level Washington Center
04:04PM 36.7425 -77.5903 28° Northeast 177 204 11,100  Level Washington Center
04:05PM 36.7867 -77.5603 29° Northeast 177 204 11,100  Level Washington Center
04:06PM 36.8331 -77.5303 27° Northeast 177 204 11,100  Level Washington Center
04:07PM 36.8753 -77.5028 28° Northeast 177 204 11,100  Level Washington Center
04:08PM 36.9194 -77.4728 29° Northeast 177 204 11,100  Level Washington Center
04:09PM 36.9639 -77.4428 28° Northeast 177 204 11,100  Level Washington Center
04:10PM 37.0081 -77.4125 29° Northeast 177 204 11,100 -60 Level Washington Center
04:11PM 37.0522 -77.3822 29° Northeast 177 204 11,000 -60 Descending Washington Center
04:12PM 37.0967 -77.3522 28° Northeast 177 204 11,000  Level Washington Center
04:13PM 37.1408 -77.3244 27° Northeast 177 204 11,000  Level Washington Center
04:14PM 37.1850 -77.2917 31° Northeast 177 204 11,000  Level Washington Center
04:15PM 37.2292 -77.2611 29° Northeast 177 204 11,000  Level Washington Center
04:16PM 37.2736 -77.2336 26° Northeast 177 204 11,000  Level Washington Center
04:17PM 37.3178 -77.2006 31° Northeast 177 204 11,000  Level Washington Center
04:18PM 37.3619 -77.1728 27° Northeast 177 204 11,000  Level Washington Center
04:19PM 37.4125 -77.1397 27° Northeast 177 204 11,000  Level Washington Center
04:20PM 37.4525 -77.1144 27° Northeast 177 204 11,000  Level Washington Center
04:21PM 37.5008 -77.0786 30° Northeast 182 209 11,000  Level Washington Center
04:22PM 37.5408 -77.0481 31° Northeast 182 209 11,000  Level Washington Center
04:23PM 37.5869 -77.0200 26° Northeast 182 209 11,000 -60 Level Washington Center
04:24PM 37.6292 -76.9867 32° Northeast 182 209 10,900 -60 Descending Washington Center
04:25PM 37.6753 -76.9561 28° Northeast 182 209 10,900  Level Washington Center
04:26PM 37.7153 -76.9200 36° Northeast 182 209 10,900  Level Washington Center
04:27PM 37.7594 -76.8867 31° Northeast 176 203 10,900  Level Washington Center
04:28PM 37.8058 -76.8586 26° Northeast 176 203 10,900  Level Washington Center
04:29PM 37.8519 -76.8278 28° Northeast 176 203 11,000  Climbing Washington Center
04:30PM 37.8961 -76.7969 29° Northeast 176 203 11,000  Level Washington Center
04:31PM 37.9422 -76.7661 28° Northeast 176 203 11,000  Level Washington Center
04:32PM 37.9864 -76.7353 29° Northeast 176 203 11,000  Level Washington Center
04:33PM 38.0325 -76.7069 26° Northeast 181 208 11,000  Level Washington Center
04:34PM 38.0786 -76.6758 28° Northeast 181 208 11,000  Level Washington Center
04:35PM 38.1228 -76.6422 31° Northeast 176 203 11,000  Level Washington Center
04:36PM 38.1522 -76.5950 52° Northeast 171 197 11,000  Level Washington Center
04:37PM 38.1819 -76.5453 53° Northeast 171 197 11,000  Level Washington Center
04:38PM 38.2197 -76.4956 46° Northeast 178 205 11,000  Level Washington Center
04:39PM 38.2514 -76.4483 49° Northeast 178 205 11,000  Level Washington Center
04:40PM 38.2872 -76.3986 47° Northeast 178 205 11,000  Level Washington Center
04:41PM 38.3186 -76.3672 38° Northeast 178 205 11,000  Level Washington Center
04:42PM 38.3606 -76.3331 33° Northeast 171 197 11,000 -300 Level Washington Center
04:43PM 38.4047 -76.2911 37° Northeast 176 203 10,400 -540 Descending Washington Center
04:44PM 38.4508 -76.2492 35° Northeast 185 213 10,000 -240 Descending Washington Center
04:45PM 38.4947 -76.2097 35° Northeast 191 220 10,000 480 Level Washington Center
04:46PM 38.5450 -76.1703 32° Northeast 197 227 11,000  Climbing Washington Center
04:47PM 38.5828 -76.1228 44° Northeast 197 227 10,000 -540 Descending Washington Center
04:48PM 38.6267 -76.0833 35° Northeast 197 227 10,000  Level Washington Center
04:49PM 38.6686 -76.0464 35° Northeast 197 227 10,000 -300 Level Washington Center
04:50PM 38.7125 -75.9986 40° Northeast 197 227 9,500 -480 Descending Washington Center
04:51PM 38.7586 -75.9617 32° Northeast 197 227 9,100 -420 Descending Washington Center
04:52PM 38.8003 -75.9192 38° Northeast 197 227 8,700 -420 Descending Washington Center
04:53PM 38.8461 -75.8794 34° Northeast 197 227 8,300 -360 Descending Washington Center
04:54PM 38.8900 -75.8397 35° Northeast 197 227 8,000 -180 Descending Washington Center
04:55PM 38.9297 -75.8025 36° Northeast 192 221 8,000 -240 Level Washington Center
04:56PM 38.9717 -75.7625 37° Northeast 187 215 7,600 -420 Descending Washington Center
04:57PM 39.0133 -75.7225 37° Northeast 182 209 7,200 -420 Descending Washington Center
04:58PM 39.0550 -75.6853 35° Northeast 182 209 6,800 -360 Descending Washington Center
04:59PM 39.1072 -75.6878 358° North 176 203 6,500 -300 Descending Washington Center
05:00PM 39.1614 -75.6906 358° North 176 203 6,300 -360 Descending Washington Center
05:01PM 39.2114 -75.6853 North 181 208 5,800 -480 Descending Washington Center
05:02PM 39.3000 -75.6833 North 190 219 5,200 -360 Descending Philadelphia TRACON
05:04PM 39.3500 -75.6833 360° North 192 221 5,000 -120 Descending Philadelphia TRACON
05:05PM 39.4167 -75.6833 360° North 182 209 5,000  Level Philadelphia TRACON
05:06PM 39.4667 -75.6667 14° North 188 216 5,000  Level Philadelphia TRACON
05:07PM 39.5167 -75.7000 333° Northwest 189 217 5,000  Level Philadelphia TRACON
05:07PM 39.5500 -75.7167 339° North 189 217 5,000  Level Philadelphia TRACON
05:09PM 39.6167 -75.7333 349° North 195 224 5,000  Level Philadelphia TRACON
05:10PM 39.6667 -75.7500 346° North 197 227 5,000  Level Philadelphia TRACON
05:11PM 39.7167 -75.7833 333° Northwest 196 226 5,100  Climbing Philadelphia TRACON
05:11PM 39.7667 -75.7833 360° North 203 234 5,000 -60 Descending Philadelphia TRACON
05:12PM 39.8167 -75.7833 360° North 198 228 5,000  Level Philadelphia TRACON
05:13PM 39.8667 -75.7833 360° North 189 217 5,100  Climbing Philadelphia TRACON
05:15PM 39.9000 -75.7333 49° Northeast 188 216 5,000 -60 Descending Philadelphia TRACON
05:16PM 39.9333 -75.6833 49° Northeast 184 212 5,000  Level Philadelphia TRACON
05:17PM 39.9667 -75.6333 49° Northeast 179 206 5,000  Level Philadelphia TRACON
05:17PM 40.0000 -75.5833 49° Northeast 178 205 5,000  Level Philadelphia TRACON
05:19PM 40.0333 -75.5167 57° Northeast 175 201 5,000  Level Philadelphia TRACON
05:20PM 40.0667 -75.4833 37° Northeast 175 201 5,000  Level Philadelphia TRACON
05:21PM 40.1000 -75.4167 57° Northeast 175 201 5,000 -240 Level Philadelphia TRACON
05:22PM 40.1333 -75.3667 49° Northeast 178 205 4,600 -420 Descending Philadelphia TRACON
05:23PM 40.1500 -75.3333 57° Northeast 185 213 4,300 -360 Descending Philadelphia TRACON
05:24PM 40.1833 -75.2667 57° Northeast 186 214 4,000 -180 Descending Philadelphia TRACON
05:25PM 40.2167 -75.2167 49° Northeast 178 205 4,000  Level Philadelphia TRACON
05:27PM 40.3000 -75.1333 37° Northeast 181 208 4,000 -60 Level New York TRACON
05:28PM 40.3333 -75.1000 37° Northeast 180 207 3,900  Descending New York TRACON
05:29PM 40.3667 -75.0500 49° Northeast 180 207 4,000  Climbing New York TRACON
05:30PM 40.4000 -75.0000 49° Northeast 186 214 4,000  Level New York TRACON
05:31PM 40.4333 -74.9500 49° Northeast 184 212 4,000  Level New York TRACON
05:32PM 40.4667 -74.9000 49° Northeast 182 209 4,000  Level New York TRACON
05:33PM 40.5000 -74.8500 49° Northeast 181 208 4,000  Level New York TRACON
05:34PM 40.5333 -74.8000 49° Northeast 178 205 4,000  Level New York TRACON
05:35PM 40.5667 -74.7500 49° Northeast 176 203 4,000  Level New York TRACON
05:36PM 40.6167 -74.7167 27° Northeast 179 206 4,000  Level New York TRACON
05:36PM 40.6500 -74.7000 21° North 177 204 4,000  Level New York TRACON
05:38PM 40.7000 -74.6500 37° Northeast 168 193 4,000  Level New York TRACON
05:39PM 40.7333 -74.6333 21° North 147 169 4,000 -60 Level New York TRACON
05:40PM 40.7667 -74.6000 37° Northeast 143 165 3,900 -300 Descending New York TRACON
05:41PM 40.7833 -74.5500 66° East 147 169 3,500 -480 Descending New York TRACON
05:42PM 40.8000 -74.5000 66° East 147 169 3,000 -300 Descending New York TRACON
05:43PM 40.8333 -74.4667 37° Northeast 127 146 2,900 -240 Descending New York TRACON
05:44PM 40.8333 -74.4333 90° East 129 148 2,600 -480 Descending New York TRACON
05:45PM 40.8500 -74.3833 66° East 134 154 2,000 -780 Descending New York TRACON
05:46PM 40.8667 -74.3500 57° Northeast 127 146 1,100 -900 Descending New York TRACON
05:48PM 40.8752 -74.2814 52° Northeast  Level Estimated
05:55PM 40.8752 -74.2814 52° Northeast  Level Estimated
05:56PM 40.8752 -74.2814 52° Northeast  Level Estimated
05:57PM 40.8752 -74.2814 52° Northeast  Level Estimated
05:58PM 40.8752 -74.2814 52° Northeast  Level Estimated